createdAt,value
2023-03-29T06:51:07.298Z,6.28
2023-03-29T06:52:07.250Z,6.28
2023-03-29T06:53:07.170Z,6.41
2023-03-29T06:54:07.063Z,6.48
2023-03-29T06:55:08.268Z,6.59
2023-03-29T06:56:08.483Z,6.63
2023-03-29T06:57:08.353Z,6.76
2023-03-29T06:58:08.279Z,6.69
2023-03-29T06:59:08.251Z,6.66
2023-03-29T07:00:08.286Z,6.68
2023-03-29T07:01:08.202Z,6.73
2023-03-29T07:02:08.746Z,6.81
2023-03-29T07:03:08.355Z,6.77
2023-03-29T07:04:08.441Z,6.86
2023-03-29T07:05:08.304Z,6.98
2023-03-29T07:06:08.337Z,6.90
2023-03-29T07:07:08.397Z,6.84
2023-03-29T07:08:08.490Z,7.01
2023-03-29T07:09:08.299Z,6.91
2023-03-29T07:10:08.257Z,6.89
2023-03-29T07:11:08.259Z,7.04
2023-03-29T07:12:09.445Z,7.01
2023-03-29T07:13:08.288Z,6.99
2023-03-29T07:14:08.139Z,6.99
2023-03-29T07:15:08.161Z,7.01
2023-03-29T07:16:08.128Z,7.07
2023-03-29T07:17:08.283Z,7.04
2023-03-29T07:18:08.286Z,6.89
2023-03-29T07:19:08.233Z,6.94
2023-03-29T07:20:08.224Z,6.77
2023-03-29T07:21:08.366Z,6.83
2023-03-29T07:22:08.199Z,6.84
2023-03-29T07:23:08.279Z,6.95
2023-03-29T07:24:08.176Z,7.15
2023-03-29T07:25:08.207Z,7.09
2023-03-29T07:26:08.434Z,7.08
2023-03-29T07:27:08.175Z,7.07
2023-03-29T07:28:08.167Z,7.16
2023-03-29T07:29:08.327Z,7.27
2023-03-29T07:30:08.138Z,7.34
2023-03-29T07:31:08.389Z,7.27
2023-03-29T07:32:08.069Z,7.22
2023-03-29T07:33:08.129Z,7.35
2023-03-29T07:34:08.107Z,7.32
2023-03-29T07:35:07.993Z,7.49
2023-03-29T07:36:08.093Z,7.49
2023-03-29T07:37:07.945Z,7.55
2023-03-29T07:38:07.989Z,7.56
2023-03-29T07:39:07.993Z,7.62
2023-03-29T07:40:08.113Z,7.66
2023-03-29T07:41:08.243Z,7.67
2023-03-29T07:42:08.042Z,7.71
2023-03-29T07:43:08.391Z,7.92
2023-03-29T07:44:08.061Z,7.84
2023-03-29T07:45:09.165Z,7.84
2023-03-29T07:46:08.215Z,7.81
2023-03-29T07:47:07.978Z,7.87
2023-03-29T07:48:08.050Z,7.94
2023-03-29T07:49:08.035Z,8.00
2023-03-29T07:50:08.200Z,7.89
2023-03-29T07:51:07.978Z,7.97
2023-03-29T07:52:07.980Z,8.02
2023-03-29T07:53:07.877Z,8.17
2023-03-29T07:54:07.879Z,8.18
2023-03-29T07:55:07.942Z,8.40
2023-03-29T07:56:08.111Z,8.35
2023-03-29T07:57:07.901Z,8.28
2023-03-29T07:58:07.817Z,8.21
2023-03-29T07:59:07.973Z,8.20
2023-03-29T08:00:07.928Z,8.35
2023-03-29T08:01:08.071Z,8.40
2023-03-29T08:02:07.914Z,8.55
2023-03-29T08:03:07.935Z,8.40
2023-03-29T08:04:08.091Z,8.42
2023-03-29T08:05:07.977Z,8.47
2023-03-29T08:06:07.863Z,8.44
2023-03-29T08:07:07.923Z,8.44
2023-03-29T08:08:07.970Z,8.40
2023-03-29T08:09:08.040Z,8.36
2023-03-29T08:10:08.120Z,8.50
2023-03-29T08:11:07.918Z,8.45
2023-03-29T08:12:07.923Z,8.63
2023-03-29T08:13:07.915Z,8.60
2023-03-29T08:14:07.785Z,8.44
2023-03-29T08:15:07.765Z,8.36
2023-03-29T08:16:08.737Z,8.30
2023-03-29T08:17:07.759Z,8.25
2023-03-29T08:18:07.937Z,8.30
2023-03-29T08:19:07.672Z,8.32
2023-03-29T08:20:07.789Z,8.08
2023-03-29T08:21:07.747Z,8.20
2023-03-29T08:22:08.094Z,8.26
2023-03-29T08:23:07.837Z,8.22
2023-03-29T08:24:07.732Z,8.21
2023-03-29T08:25:07.709Z,8.21
2023-03-29T08:26:07.755Z,8.25
2023-03-29T08:27:07.667Z,8.26
2023-03-29T08:28:07.744Z,8.26
2023-03-29T08:29:07.862Z,8.20
2023-03-29T08:30:07.758Z,8.32
2023-03-29T08:31:08.495Z,8.28
2023-03-29T08:32:07.575Z,8.29
2023-03-29T08:33:07.632Z,8.14
2023-03-29T08:34:07.593Z,8.17
2023-03-29T08:35:07.571Z,8.29
2023-03-29T08:36:07.787Z,8.37
2023-03-29T08:37:07.571Z,8.60
2023-03-29T08:38:07.534Z,8.71
2023-03-29T08:39:07.560Z,8.96
2023-03-29T08:40:07.539Z,8.99
2023-03-29T08:41:07.603Z,8.91
2023-03-29T08:42:07.677Z,9.01
2023-03-29T08:43:07.632Z,9.02
2023-03-29T08:44:07.645Z,8.99
2023-03-29T08:45:07.638Z,9.05
2023-03-29T08:46:07.627Z,9.16
2023-03-29T08:47:07.525Z,9.16
2023-03-29T08:48:07.985Z,9.10
2023-03-29T08:49:07.566Z,8.93
2023-03-29T08:50:07.580Z,8.94
2023-03-29T08:51:09.460Z,8.96
2023-03-29T08:52:08.651Z,8.84
2023-03-29T08:53:07.599Z,8.81
2023-03-29T08:54:07.495Z,8.78
2023-03-29T08:55:07.445Z,8.60
2023-03-29T08:56:07.827Z,8.54
2023-03-29T08:57:07.645Z,8.66
2023-03-29T08:58:07.433Z,8.68
2023-03-29T08:59:07.428Z,8.78
2023-03-29T09:00:07.404Z,8.84
2023-03-29T09:01:07.557Z,8.87
2023-03-29T09:02:07.804Z,8.73
2023-03-29T09:03:07.456Z,8.76
2023-03-29T09:06:26.500Z,8.51
2023-03-29T09:09:46.811Z,8.58
2023-03-29T09:10:48.120Z,8.75
2023-03-29T09:11:47.994Z,8.88
2023-03-29T09:12:48.026Z,8.96
2023-03-29T09:13:48.182Z,8.90
2023-03-29T09:14:48.046Z,8.93
2023-03-29T09:15:48.182Z,8.86
2023-03-29T09:16:48.046Z,8.97
2023-03-29T09:17:49.609Z,8.90
2023-03-29T09:18:49.078Z,8.96
2023-03-29T09:19:49.145Z,8.99
2023-03-29T09:20:48.014Z,9.06
2023-03-29T09:21:48.029Z,9.15
2023-03-29T09:22:48.010Z,9.34
2023-03-29T09:23:48.402Z,9.35
2023-03-29T09:24:48.142Z,9.30
2023-03-29T09:25:53.363Z,9.12
2023-03-29T09:26:49.973Z,9.20
2023-03-29T09:27:47.864Z,9.06
2023-03-29T09:28:47.916Z,9.18
2023-03-29T09:29:47.890Z,9.30
2023-03-29T09:30:47.932Z,9.38
2023-03-29T09:31:47.993Z,9.46
2023-03-29T09:32:47.950Z,9.45
2023-03-29T09:33:47.820Z,9.34
2023-03-29T09:34:47.858Z,9.48
2023-03-29T09:35:47.944Z,9.27
2023-03-29T09:36:48.088Z,9.13
2023-03-29T09:37:47.916Z,9.06
2023-03-29T09:38:48.049Z,9.09
2023-03-29T09:39:48.216Z,9.31
2023-03-29T09:40:47.906Z,9.10
2023-03-29T09:41:47.968Z,9.30
2023-03-29T09:42:47.909Z,9.31
2023-03-29T09:43:48.037Z,9.48
2023-03-29T09:44:48.199Z,9.34
2023-03-29T09:45:47.971Z,9.27
2023-03-29T09:46:47.739Z,9.42
2023-03-29T09:47:47.867Z,9.39
2023-03-29T09:48:47.718Z,9.61
2023-03-29T09:49:47.844Z,9.70
2023-03-29T09:50:47.835Z,9.78
2023-03-29T09:51:48.088Z,9.94
2023-03-29T09:52:47.890Z,10.07
2023-03-29T09:53:47.947Z,10.10
2023-03-29T09:54:47.794Z,10.15
2023-03-29T09:55:49.093Z,10.19
2023-03-29T09:56:49.089Z,10.18
2023-03-29T09:57:47.792Z,10.18
2023-03-29T09:58:48.134Z,10.03
2023-03-29T09:59:47.804Z,10.18
2023-03-29T10:00:47.754Z,10.12
2023-03-29T10:01:47.792Z,10.09
2023-03-29T10:02:47.956Z,10.04
2023-03-29T10:03:47.702Z,10.14
2023-03-29T10:04:47.728Z,10.30
2023-03-29T10:05:47.611Z,10.21
2023-03-29T10:06:47.652Z,10.39
2023-03-29T10:07:47.616Z,10.37
2023-03-29T10:08:47.612Z,10.43
2023-03-29T10:09:47.783Z,10.63
2023-03-29T10:10:47.715Z,10.62
2023-03-29T10:11:47.698Z,10.43
2023-03-29T10:12:48.004Z,10.46
2023-03-29T10:13:47.619Z,10.56
2023-03-29T10:14:47.861Z,10.55
2023-03-29T10:15:47.651Z,10.68
2023-03-29T10:16:48.000Z,10.68
2023-03-29T10:17:47.633Z,10.70
2023-03-29T10:18:47.799Z,10.70
2023-03-29T10:19:47.620Z,10.73
2023-03-29T10:20:47.651Z,10.63
2023-03-29T10:21:47.533Z,10.70
2023-03-29T10:22:47.504Z,10.73
2023-03-29T10:23:47.618Z,10.78
2023-03-29T10:24:47.464Z,10.88
2023-03-29T10:25:47.542Z,11.03
2023-03-29T10:26:47.539Z,11.06
2023-03-29T10:27:47.544Z,11.07
2023-03-29T10:28:47.584Z,11.09
2023-03-29T10:29:47.626Z,11.09
2023-03-29T10:30:47.563Z,11.20
2023-03-29T10:31:47.670Z,11.07
2023-03-29T10:32:47.572Z,11.16
2023-03-29T10:33:47.624Z,11.32
2023-03-29T10:34:47.560Z,11.27
2023-03-29T10:35:47.620Z,11.29
2023-03-29T10:36:47.851Z,11.28
2023-03-29T10:37:47.629Z,11.50
2023-03-29T10:38:47.617Z,11.54
2023-03-29T10:39:47.449Z,11.70
2023-03-29T10:40:47.547Z,11.65
2023-03-29T10:41:48.596Z,11.72
2023-03-29T10:42:47.389Z,11.87
2023-03-29T10:43:47.505Z,11.97
2023-03-29T10:44:47.417Z,12.05
2023-03-29T10:45:47.616Z,12.19
2023-03-29T10:46:47.497Z,12.37
2023-03-29T10:47:47.486Z,12.42
2023-03-29T10:48:47.722Z,12.37
2023-03-29T10:49:47.946Z,12.49
2023-03-29T10:50:47.436Z,12.44
2023-03-29T10:51:47.413Z,12.38
2023-03-29T10:52:47.570Z,12.42
2023-03-29T10:53:47.305Z,12.41
2023-03-29T10:54:47.310Z,12.54
2023-03-29T10:55:47.590Z,12.39
2023-03-29T10:56:47.392Z,12.29
2023-03-29T10:57:47.306Z,12.41
2023-03-29T10:58:47.745Z,12.59
2023-03-29T10:59:47.379Z,12.63
2023-03-29T11:00:47.390Z,12.51
2023-03-29T11:01:47.752Z,12.59
2023-03-29T11:02:47.468Z,12.63
2023-03-29T11:03:47.570Z,12.51
2023-03-29T11:04:47.304Z,12.56
2023-03-29T11:05:47.340Z,12.56
2023-03-29T11:06:47.410Z,12.78
2023-03-29T11:07:47.427Z,12.77
2023-03-29T11:08:47.328Z,12.49
2023-03-29T11:09:47.686Z,12.56
2023-03-29T11:10:47.346Z,12.48
2023-03-29T11:11:47.202Z,12.67
2023-03-29T11:12:47.146Z,12.69
2023-03-29T11:13:47.142Z,12.59
2023-03-29T11:14:47.354Z,12.51
2023-03-29T11:15:47.582Z,12.46
2023-03-29T11:16:47.692Z,12.20
2023-03-29T11:17:47.445Z,12.21
2023-03-29T11:18:47.356Z,12.06
2023-03-29T11:19:47.979Z,12.02
2023-03-29T11:20:47.633Z,11.94
2023-03-29T11:21:47.538Z,11.99
2023-03-29T11:22:47.222Z,12.02
2023-03-29T11:23:47.391Z,12.16
2023-03-29T11:24:47.133Z,12.21
2023-03-29T11:25:47.138Z,12.30
2023-03-29T11:26:47.087Z,12.33
2023-03-29T11:27:47.129Z,12.38
2023-03-29T11:28:47.045Z,12.33
2023-03-29T11:29:47.050Z,12.29
2023-03-29T11:30:47.196Z,12.23
2023-03-29T11:31:47.277Z,12.21
2023-03-29T11:32:47.295Z,12.42
2023-03-29T11:33:47.271Z,12.27
2023-03-29T11:34:47.148Z,12.12
2023-03-29T11:35:47.226Z,12.15
2023-03-29T11:36:47.140Z,12.04
2023-03-29T11:37:47.277Z,12.26
2023-03-29T11:38:47.124Z,12.15
2023-03-29T11:39:47.454Z,12.12
2023-03-29T11:40:47.255Z,12.29
2023-03-29T11:41:47.526Z,12.46
2023-03-29T11:42:47.173Z,12.60
2023-03-29T11:43:46.984Z,12.63
2023-03-29T11:44:47.032Z,12.82
2023-03-29T11:45:47.285Z,12.71
2023-03-29T11:46:47.067Z,12.78
2023-03-29T11:47:47.055Z,12.87
2023-03-29T11:48:46.920Z,12.97
2023-03-29T11:49:46.920Z,12.89
2023-03-29T11:50:46.959Z,13.07
2023-03-29T11:51:46.981Z,12.95
2023-03-29T11:52:47.029Z,12.71
2023-03-29T11:53:46.991Z,12.64
2023-03-29T11:54:46.914Z,12.42
2023-03-29T11:55:46.943Z,12.45
2023-03-29T11:56:47.318Z,12.44
2023-03-29T11:57:47.026Z,12.56
2023-03-29T11:58:46.897Z,12.69
2023-03-29T11:59:46.990Z,12.64
2023-03-29T12:00:46.957Z,12.78
2023-03-29T12:01:47.037Z,12.92
2023-03-29T12:02:47.090Z,12.81
2023-03-29T12:03:47.505Z,12.66
2023-03-29T12:04:46.827Z,12.78
2023-03-29T12:05:46.733Z,12.79
2023-03-29T12:06:46.903Z,12.93
2023-03-29T12:07:46.825Z,13.18
2023-03-29T12:08:47.241Z,13.33
2023-03-29T12:09:47.001Z,13.43
2023-03-29T12:10:46.805Z,13.27
2023-03-29T12:11:47.327Z,13.09
2023-03-29T12:12:46.849Z,13.14
2023-03-29T12:13:46.905Z,13.17
2023-03-29T12:14:46.881Z,13.07
2023-03-29T12:15:46.791Z,12.96
2023-03-29T12:16:46.969Z,12.82
2023-03-29T12:17:46.899Z,13.04
2023-03-29T12:18:46.713Z,13.18
2023-03-29T12:19:46.804Z,13.27
2023-03-29T12:20:46.850Z,13.20
2023-03-29T12:21:46.677Z,13.21
2023-03-29T12:22:46.690Z,13.20
2023-03-29T12:23:46.634Z,13.02
2023-03-29T12:24:46.799Z,13.15
2023-03-29T12:25:46.725Z,13.30
2023-03-29T12:26:46.880Z,13.30
2023-03-29T12:27:46.737Z,13.51
2023-03-29T12:28:46.830Z,13.59
2023-03-29T12:29:46.770Z,13.47
2023-03-29T12:30:47.025Z,13.43
2023-03-29T12:31:46.758Z,13.58
2023-03-29T12:32:46.863Z,13.52
2023-03-29T12:33:47.013Z,13.61
2023-03-29T12:34:46.944Z,13.51
2023-03-29T12:35:46.784Z,13.58
2023-03-29T12:36:46.581Z,13.73
2023-03-29T12:37:46.588Z,13.89
2023-03-29T12:38:46.985Z,13.92
2023-03-29T12:39:46.850Z,14.19
2023-03-29T12:40:46.730Z,14.28
2023-03-29T12:41:46.709Z,14.28
2023-03-29T12:42:46.767Z,14.09
2023-03-29T12:43:46.649Z,14.20
2023-03-29T12:44:46.610Z,14.12
2023-03-29T12:45:47.987Z,14.14
2023-03-29T12:46:47.419Z,14.09
2023-03-29T12:47:46.840Z,14.06
2023-03-29T12:48:46.657Z,14.06
2023-03-29T12:49:46.629Z,14.27
2023-03-29T12:50:47.074Z,14.16
2023-03-29T12:51:46.480Z,14.28
2023-03-29T12:52:46.510Z,14.47
2023-03-29T12:53:46.707Z,14.61
2023-03-29T12:54:46.455Z,14.81
2023-03-29T12:55:46.470Z,14.62
2023-03-29T12:56:46.776Z,14.44
2023-03-29T12:57:46.498Z,14.35
2023-03-29T12:58:46.784Z,14.32
2023-03-29T12:59:46.514Z,14.16
2023-03-29T13:00:47.131Z,14.04
2023-03-29T13:01:47.389Z,14.01
2023-03-29T13:02:46.435Z,14.06
2023-03-29T13:03:47.879Z,14.12
2023-03-29T13:04:46.699Z,14.07
2023-03-29T13:05:46.542Z,14.32
2023-03-29T13:06:46.457Z,14.32
2023-03-29T13:07:46.645Z,14.25
2023-03-29T13:08:46.655Z,14.24
2023-03-29T13:09:46.493Z,13.99
2023-03-29T13:10:46.370Z,14.01
2023-03-29T13:11:46.348Z,13.63
2023-03-29T13:12:47.464Z,13.52
2023-03-29T13:13:46.278Z,13.74
2023-03-29T13:14:46.512Z,13.63
2023-03-29T13:15:46.491Z,13.71
2023-03-29T13:16:46.513Z,13.76
2023-03-29T13:17:46.429Z,13.92
2023-03-29T13:18:46.547Z,14.10
2023-03-29T13:19:46.417Z,14.35
2023-03-29T13:20:46.421Z,14.19
2023-03-29T13:21:46.518Z,14.21
2023-03-29T13:22:46.374Z,14.56
2023-03-29T13:23:46.266Z,14.65
2023-03-29T13:24:46.248Z,14.86
2023-03-29T13:25:46.748Z,14.98
2023-03-29T13:26:46.308Z,14.87
2023-03-29T13:27:46.239Z,14.57
2023-03-29T13:28:46.226Z,14.62
2023-03-29T13:29:46.207Z,15.05
2023-03-29T13:30:46.587Z,15.05
2023-03-29T13:31:46.319Z,15.30
2023-03-29T13:32:46.629Z,15.27
2023-03-29T13:33:46.423Z,15.24
2023-03-29T13:34:46.243Z,15.13
2023-03-29T13:35:46.297Z,14.95
2023-03-29T13:36:46.299Z,14.99
2023-03-29T13:37:46.315Z,14.88
2023-03-29T13:38:46.285Z,14.91
2023-03-29T13:39:46.608Z,14.98
2023-03-29T13:40:46.208Z,14.90
2023-03-29T13:41:46.553Z,14.95
2023-03-29T13:42:47.228Z,15.06
2023-03-29T13:43:47.253Z,15.15
2023-03-29T13:44:46.139Z,15.33
2023-03-29T13:45:46.187Z,15.60
2023-03-29T13:46:46.317Z,15.30
2023-03-29T13:47:58.333Z,15.43
2023-03-29T13:48:48.092Z,15.26
2023-03-29T13:49:46.140Z,15.79
2023-03-29T13:50:46.131Z,17.00
2023-03-29T13:51:46.158Z,17.91
2023-03-29T13:52:46.475Z,18.17
2023-03-29T13:53:46.185Z,17.89
